sensor_id;sensor_type;location;lat;lon;timestamp;P1;durP1;ratioP1;P2;durP2;ratioP2
52692;SDS011;68218;51.012;-1.648;2023-03-14T00:00:36;40.33;;;4.35;;
52692;SDS011;68218;51.012;-1.648;2023-03-14T00:05:27;31.25;;;4.72;;
52692;SDS011;68218;51.012;-1.648;2023-03-14T00:10:18;35.13;;;3.75;;
52692;SDS011;68218;51.012;-1.648;2023-03-14T00:15:09;34.22;;;3.30;;
52692;SDS011;68218;51.012;-1.648;2023-03-14T00:17:36;24.77;;;3.13;;
52692;SDS011;68218;51.012;-1.648;2023-03-14T00:22:33;2.40;;;0.95;;
52692;SDS011;68218;51.012;-1.648;2023-03-14T00:24:59;4.10;;;1.00;;
52692;SDS011;68218;51.012;-1.648;2023-03-14T00:29:50;2.20;;;0.50;;
52692;SDS011;68218;51.012;-1.648;2023-03-14T00:34:41;3.10;;;0.80;;
52692;SDS011;68218;51.012;-1.648;2023-03-14T00:37:06;0.38;;;0.38;;
52692;SDS011;68218;51.012;-1.648;2023-03-14T00:39:32;0.38;;;0.35;;
52692;SDS011;68218;51.012;-1.648;2023-03-14T00:44:23;2.40;;;0.60;;
52692;SDS011;68218;51.012;-1.648;2023-03-14T00:49:13;1.65;;;0.70;;
52692;SDS011;68218;51.012;-1.648;2023-03-14T00:54:04;3.05;;;0.75;;
52692;SDS011;68218;51.012;-1.648;2023-03-14T00:58:55;7.60;;;1.33;;
52692;SDS011;68218;51.012;-1.648;2023-03-14T01:03:46;7.97;;;1.45;;
52692;SDS011;68218;51.012;-1.648;2023-03-14T01:06:16;6.60;;;1.10;;
52692;SDS011;68218;51.012;-1.648;2023-03-14T01:08:44;6.80;;;1.25;;
52692;SDS011;68218;51.012;-1.648;2023-03-14T01:13:37;10.05;;;1.40;;
52692;SDS011;68218;51.012;-1.648;2023-03-14T01:18:30;9.30;;;1.40;;
52692;SDS011;68218;51.012;-1.648;2023-03-14T01:23:21;8.55;;;1.60;;
52692;SDS011;68218;51.012;-1.648;2023-03-14T01:28:12;8.35;;;1.67;;
52692;SDS011;68218;51.012;-1.648;2023-03-14T01:30:37;12.60;;;1.83;;
52692;SDS011;68218;51.012;-1.648;2023-03-14T01:33:03;12.10;;;2.15;;
52692;SDS011;68218;51.012;-1.648;2023-03-14T01:37:53;18.33;;;1.90;;
52692;SDS011;68218;51.012;-1.648;2023-03-14T01:40:19;11.00;;;2.08;;
52692;SDS011;68218;51.012;-1.648;2023-03-14T01:48:26;13.60;;;2.17;;
52692;SDS011;68218;51.012;-1.648;2023-03-14T01:50:56;7.68;;;1.63;;
52692;SDS011;68218;51.012;-1.648;2023-03-14T01:53:23;11.73;;;1.80;;
52692;SDS011;68218;51.012;-1.648;2023-03-14T01:58:17;13.68;;;1.63;;
52692;SDS011;68218;51.012;-1.648;2023-03-14T02:00:45;9.00;;;2.08;;
52692;SDS011;68218;51.012;-1.648;2023-03-14T02:05:40;12.05;;;2.70;;
52692;SDS011;68218;51.012;-1.648;2023-03-14T02:08:07;8.68;;;1.60;;
52692;SDS011;68218;51.012;-1.648;2023-03-14T02:10:37;16.63;;;2.00;;
52692;SDS011;68218;51.012;-1.648;2023-03-14T02:13:06;13.65;;;2.13;;
52692;SDS011;68218;51.012;-1.648;2023-03-14T02:17:58;9.68;;;2.13;;
52692;SDS011;68218;51.012;-1.648;2023-03-14T02:28:06;10.60;;;1.75;;
52692;SDS011;68218;51.012;-1.648;2023-03-14T02:30:32;15.23;;;2.15;;
52692;SDS011;68218;51.012;-1.648;2023-03-14T02:33:02;11.48;;;2.13;;
52692;SDS011;68218;51.012;-1.648;2023-03-14T02:35:35;9.90;;;2.15;;
52692;SDS011;68218;51.012;-1.648;2023-03-14T02:38:34;18.75;;;2.65;;
52692;SDS011;68218;51.012;-1.648;2023-03-14T02:41:06;11.80;;;1.60;;
52692;SDS011;68218;51.012;-1.648;2023-03-14T02:43:32;18.52;;;2.92;;
52692;SDS011;68218;51.012;-1.648;2023-03-14T02:45:58;8.70;;;1.60;;
52692;SDS011;68218;51.012;-1.648;2023-03-14T02:48:26;18.60;;;1.83;;
52692;SDS011;68218;51.012;-1.648;2023-03-14T02:50:59;14.80;;;2.03;;
52692;SDS011;68218;51.012;-1.648;2023-03-14T02:53:33;9.38;;;1.55;;
52692;SDS011;68218;51.012;-1.648;2023-03-14T02:55:59;16.25;;;2.10;;
52692;SDS011;68218;51.012;-1.648;2023-03-14T02:58:25;13.07;;;2.03;;
52692;SDS011;68218;51.012;-1.648;2023-03-14T03:00:51;18.02;;;1.85;;
52692;SDS011;68218;51.012;-1.648;2023-03-14T03:03:17;15.27;;;2.20;;
52692;SDS011;68218;51.012;-1.648;2023-03-14T03:05:43;12.38;;;1.70;;
52692;SDS011;68218;51.012;-1.648;2023-03-14T03:08:09;19.77;;;2.00;;
52692;SDS011;68218;51.012;-1.648;2023-03-14T03:10:35;17.30;;;2.00;;
52692;SDS011;68218;51.012;-1.648;2023-03-14T03:13:00;11.82;;;2.40;;
52692;SDS011;68218;51.012;-1.648;2023-03-14T03:15:26;14.82;;;2.22;;
52692;SDS011;68218;51.012;-1.648;2023-03-14T03:17:52;16.55;;;2.10;;
52692;SDS011;68218;51.012;-1.648;2023-03-14T03:22:42;8.75;;;1.63;;
52692;SDS011;68218;51.012;-1.648;2023-03-14T03:25:08;16.60;;;2.53;;
52692;SDS011;68218;51.012;-1.648;2023-03-14T03:27:34;17.27;;;2.33;;
52692;SDS011;68218;51.012;-1.648;2023-03-14T03:30:01;15.95;;;2.20;;
52692;SDS011;68218;51.012;-1.648;2023-03-14T03:32:28;16.33;;;1.95;;
52692;SDS011;68218;51.012;-1.648;2023-03-14T03:34:53;14.55;;;2.28;;
52692;SDS011;68218;51.012;-1.648;2023-03-14T03:37:18;12.25;;;2.13;;
52692;SDS011;68218;51.012;-1.648;2023-03-14T03:39:44;12.48;;;2.28;;
52692;SDS011;68218;51.012;-1.648;2023-03-14T03:44:35;19.73;;;2.70;;
52692;SDS011;68218;51.012;-1.648;2023-03-14T03:49:29;16.85;;;2.50;;
52692;SDS011;68218;51.012;-1.648;2023-03-14T03:51:55;15.25;;;2.13;;
52692;SDS011;68218;51.012;-1.648;2023-03-14T03:54:21;9.52;;;2.00;;
52692;SDS011;68218;51.012;-1.648;2023-03-14T03:56:46;22.00;;;2.60;;
52692;SDS011;68218;51.012;-1.648;2023-03-14T03:59:12;17.38;;;2.65;;
52692;SDS011;68218;51.012;-1.648;2023-03-14T04:01:37;12.45;;;1.98;;
52692;SDS011;68218;51.012;-1.648;2023-03-14T04:06:28;11.50;;;2.30;;
52692;SDS011;68218;51.012;-1.648;2023-03-14T04:08:54;27.75;;;2.40;;
52692;SDS011;68218;51.012;-1.648;2023-03-14T04:11:19;17.17;;;2.28;;
52692;SDS011;68218;51.012;-1.648;2023-03-14T04:13:45;18.48;;;2.50;;
52692;SDS011;68218;51.012;-1.648;2023-03-14T04:18:42;13.77;;;2.83;;
52692;SDS011;68218;51.012;-1.648;2023-03-14T04:21:08;23.85;;;2.35;;
52692;SDS011;68218;51.012;-1.648;2023-03-14T04:23:34;21.10;;;2.38;;
52692;SDS011;68218;51.012;-1.648;2023-03-14T04:25:59;12.80;;;2.40;;
52692;SDS011;68218;51.012;-1.648;2023-03-14T04:28:25;20.50;;;2.70;;
52692;SDS011;68218;51.012;-1.648;2023-03-14T04:30:50;17.88;;;3.15;;
52692;SDS011;68218;51.012;-1.648;2023-03-14T04:33:15;19.20;;;2.40;;
52692;SDS011;68218;51.012;-1.648;2023-03-14T04:35:42;18.15;;;2.90;;
52692;SDS011;68218;51.012;-1.648;2023-03-14T04:38:09;15.02;;;2.60;;
52692;SDS011;68218;51.012;-1.648;2023-03-14T04:40:38;20.35;;;2.65;;
52692;SDS011;68218;51.012;-1.648;2023-03-14T04:43:10;12.00;;;2.28;;
52692;SDS011;68218;51.012;-1.648;2023-03-14T04:45:36;17.05;;;2.55;;
52692;SDS011;68218;51.012;-1.648;2023-03-14T04:48:02;18.08;;;2.47;;
52692;SDS011;68218;51.012;-1.648;2023-03-14T04:52:53;19.95;;;2.65;;
52692;SDS011;68218;51.012;-1.648;2023-03-14T04:55:18;16.23;;;2.85;;
52692;SDS011;68218;51.012;-1.648;2023-03-14T04:57:43;18.60;;;2.85;;
52692;SDS011;68218;51.012;-1.648;2023-03-14T05:00:09;16.73;;;2.22;;
52692;SDS011;68218;51.012;-1.648;2023-03-14T05:05:00;20.77;;;2.78;;
52692;SDS011;68218;51.012;-1.648;2023-03-14T05:07:26;26.95;;;2.97;;
52692;SDS011;68218;51.012;-1.648;2023-03-14T05:09:51;23.05;;;2.40;;
52692;SDS011;68218;51.012;-1.648;2023-03-14T05:12:18;15.68;;;2.67;;
52692;SDS011;68218;51.012;-1.648;2023-03-14T05:17:09;17.80;;;2.72;;
52692;SDS011;68218;51.012;-1.648;2023-03-14T05:19:35;15.45;;;1.98;;
52692;SDS011;68218;51.012;-1.648;2023-03-14T05:22:00;17.50;;;3.03;;
52692;SDS011;68218;51.012;-1.648;2023-03-14T05:24:26;9.00;;;2.13;;
52692;SDS011;68218;51.012;-1.648;2023-03-14T05:26:51;18.63;;;2.85;;
52692;SDS011;68218;51.012;-1.648;2023-03-14T05:29:17;17.10;;;2.55;;
52692;SDS011;68218;51.012;-1.648;2023-03-14T05:31:42;14.98;;;2.40;;
52692;SDS011;68218;51.012;-1.648;2023-03-14T05:34:08;17.02;;;2.92;;
52692;SDS011;68218;51.012;-1.648;2023-03-14T05:38:58;18.35;;;2.80;;
52692;SDS011;68218;51.012;-1.648;2023-03-14T05:41:24;17.10;;;2.60;;
52692;SDS011;68218;51.012;-1.648;2023-03-14T05:43:49;13.93;;;2.30;;
52692;SDS011;68218;51.012;-1.648;2023-03-14T05:46:14;12.13;;;2.20;;
52692;SDS011;68218;51.012;-1.648;2023-03-14T05:48:40;18.90;;;2.70;;
52692;SDS011;68218;51.012;-1.648;2023-03-14T05:53:31;23.23;;;2.72;;
52692;SDS011;68218;51.012;-1.648;2023-03-14T05:55:56;15.30;;;2.30;;
52692;SDS011;68218;51.012;-1.648;2023-03-14T05:58:22;18.88;;;2.55;;
52692;SDS011;68218;51.012;-1.648;2023-03-14T06:00:47;12.63;;;2.60;;
52692;SDS011;68218;51.012;-1.648;2023-03-14T06:05:38;23.02;;;2.58;;
52692;SDS011;68218;51.012;-1.648;2023-03-14T06:08:04;15.15;;;2.58;;
52692;SDS011;68218;51.012;-1.648;2023-03-14T06:10:29;13.85;;;2.47;;
52692;SDS011;68218;51.012;-1.648;2023-03-14T06:12:55;17.48;;;2.85;;
52692;SDS011;68218;51.012;-1.648;2023-03-14T06:15:20;20.73;;;2.63;;
52692;SDS011;68218;51.012;-1.648;2023-03-14T06:17:46;17.48;;;2.22;;
52692;SDS011;68218;51.012;-1.648;2023-03-14T06:20:12;19.15;;;2.53;;
52692;SDS011;68218;51.012;-1.648;2023-03-14T06:22:38;14.48;;;2.90;;
52692;SDS011;68218;51.012;-1.648;2023-03-14T06:25:05;14.05;;;2.88;;
52692;SDS011;68218;51.012;-1.648;2023-03-14T06:27:31;14.15;;;2.60;;
52692;SDS011;68218;51.012;-1.648;2023-03-14T06:29:56;20.52;;;2.92;;
52692;SDS011;68218;51.012;-1.648;2023-03-14T06:32:22;13.70;;;2.42;;
52692;SDS011;68218;51.012;-1.648;2023-03-14T06:34:47;24.95;;;4.60;;
52692;SDS011;68218;51.012;-1.648;2023-03-14T06:37:13;16.65;;;2.70;;
52692;SDS011;68218;51.012;-1.648;2023-03-14T06:39:38;18.30;;;3.17;;
52692;SDS011;68218;51.012;-1.648;2023-03-14T06:42:04;16.48;;;2.78;;
52692;SDS011;68218;51.012;-1.648;2023-03-14T06:44:31;19.80;;;3.67;;
52692;SDS011;68218;51.012;-1.648;2023-03-14T06:46:57;18.25;;;2.88;;
52692;SDS011;68218;51.012;-1.648;2023-03-14T06:49:22;16.58;;;2.25;;
52692;SDS011;68218;51.012;-1.648;2023-03-14T06:51:47;18.92;;;2.42;;
52692;SDS011;68218;51.012;-1.648;2023-03-14T06:54:13;17.90;;;2.50;;
52692;SDS011;68218;51.012;-1.648;2023-03-14T06:56:38;13.95;;;2.67;;
52692;SDS011;68218;51.012;-1.648;2023-03-14T06:59:04;19.33;;;2.53;;
52692;SDS011;68218;51.012;-1.648;2023-03-14T07:01:30;20.40;;;2.42;;
52692;SDS011;68218;51.012;-1.648;2023-03-14T07:03:57;20.23;;;3.35;;
52692;SDS011;68218;51.012;-1.648;2023-03-14T07:06:23;14.88;;;2.50;;
52692;SDS011;68218;51.012;-1.648;2023-03-14T07:11:14;16.30;;;2.38;;
52692;SDS011;68218;51.012;-1.648;2023-03-14T07:13:39;15.18;;;2.63;;
52692;SDS011;68218;51.012;-1.648;2023-03-14T07:16:05;17.00;;;2.70;;
52692;SDS011;68218;51.012;-1.648;2023-03-14T07:18:31;13.02;;;2.80;;
52692;SDS011;68218;51.012;-1.648;2023-03-14T07:20:57;22.23;;;2.20;;
52692;SDS011;68218;51.012;-1.648;2023-03-14T07:25:48;11.57;;;2.03;;
52692;SDS011;68218;51.012;-1.648;2023-03-14T07:28:13;17.23;;;2.10;;
52692;SDS011;68218;51.012;-1.648;2023-03-14T07:30:39;17.27;;;2.72;;
52692;SDS011;68218;51.012;-1.648;2023-03-14T07:33:04;16.95;;;2.15;;
52692;SDS011;68218;51.012;-1.648;2023-03-14T07:35:30;11.30;;;2.05;;
52692;SDS011;68218;51.012;-1.648;2023-03-14T07:40:20;19.10;;;2.38;;
52692;SDS011;68218;51.012;-1.648;2023-03-14T07:42:46;22.50;;;2.55;;
52692;SDS011;68218;51.012;-1.648;2023-03-14T07:45:11;14.75;;;2.60;;
52692;SDS011;68218;51.012;-1.648;2023-03-14T07:47:37;21.77;;;2.53;;
52692;SDS011;68218;51.012;-1.648;2023-03-14T07:50:03;19.23;;;2.85;;
52692;SDS011;68218;51.012;-1.648;2023-03-14T07:52:29;18.52;;;2.65;;
52692;SDS011;68218;51.012;-1.648;2023-03-14T07:57:20;16.60;;;2.38;;
52692;SDS011;68218;51.012;-1.648;2023-03-14T07:59:46;21.10;;;2.25;;
52692;SDS011;68218;51.012;-1.648;2023-03-14T08:04:37;13.77;;;3.03;;
52692;SDS011;68218;51.012;-1.648;2023-03-14T08:07:04;18.95;;;3.10;;
52692;SDS011;68218;51.012;-1.648;2023-03-14T08:11:55;19.08;;;2.45;;
52692;SDS011;68218;51.012;-1.648;2023-03-14T08:16:45;16.80;;;2.42;;
52692;SDS011;68218;51.012;-1.648;2023-03-14T08:21:36;20.23;;;2.78;;
52692;SDS011;68218;51.012;-1.648;2023-03-14T08:26:27;19.70;;;2.92;;
52692;SDS011;68218;51.012;-1.648;2023-03-14T08:31:18;13.90;;;2.53;;
52692;SDS011;68218;51.012;-1.648;2023-03-14T08:36:09;15.88;;;2.92;;
52692;SDS011;68218;51.012;-1.648;2023-03-14T08:38:34;22.08;;;2.33;;
52692;SDS011;68218;51.012;-1.648;2023-03-14T08:41:00;17.10;;;2.30;;
52692;SDS011;68218;51.012;-1.648;2023-03-14T08:43:27;22.35;;;2.55;;
52692;SDS011;68218;51.012;-1.648;2023-03-14T08:45:53;12.05;;;1.98;;
52692;SDS011;68218;51.012;-1.648;2023-03-14T08:48:23;14.68;;;1.90;;
52692;SDS011;68218;51.012;-1.648;2023-03-14T08:53:13;7.85;;;1.27;;
52692;SDS011;68218;51.012;-1.648;2023-03-14T08:58:04;19.33;;;2.05;;
52692;SDS011;68218;51.012;-1.648;2023-03-14T09:00:29;12.90;;;1.50;;
52692;SDS011;68218;51.012;-1.648;2023-03-14T09:05:20;13.90;;;2.13;;
52692;SDS011;68218;51.012;-1.648;2023-03-14T09:07:46;14.77;;;2.00;;
52692;SDS011;68218;51.012;-1.648;2023-03-14T09:10:11;11.13;;;1.42;;
52692;SDS011;68218;51.012;-1.648;2023-03-14T09:15:02;4.35;;;1.20;;
52692;SDS011;68218;51.012;-1.648;2023-03-14T09:17:28;10.30;;;1.30;;
52692;SDS011;68218;51.012;-1.648;2023-03-14T09:22:19;8.27;;;1.27;;
52692;SDS011;68218;51.012;-1.648;2023-03-14T09:24:45;8.90;;;1.33;;
52692;SDS011;68218;51.012;-1.648;2023-03-14T09:29:36;10.90;;;1.38;;
52692;SDS011;68218;51.012;-1.648;2023-03-14T09:32:02;13.07;;;1.70;;
52692;SDS011;68218;51.012;-1.648;2023-03-14T09:36:53;11.65;;;1.50;;
52692;SDS011;68218;51.012;-1.648;2023-03-14T09:39:19;13.05;;;1.63;;
52692;SDS011;68218;51.012;-1.648;2023-03-14T09:44:18;7.25;;;1.13;;
52692;SDS011;68218;51.012;-1.648;2023-03-14T09:46:56;10.15;;;1.58;;
52692;SDS011;68218;51.012;-1.648;2023-03-14T09:49:29;9.85;;;1.48;;
52692;SDS011;68218;51.012;-1.648;2023-03-14T09:51:58;13.00;;;1.77;;
52692;SDS011;68218;51.012;-1.648;2023-03-14T09:57:00;4.20;;;1.10;;
52692;SDS011;68218;51.012;-1.648;2023-03-14T09:59:28;4.22;;;1.30;;
52692;SDS011;68218;51.012;-1.648;2023-03-14T10:01:55;4.18;;;1.00;;
52692;SDS011;68218;51.012;-1.648;2023-03-14T10:04:25;3.97;;;0.90;;
52692;SDS011;68218;51.012;-1.648;2023-03-14T10:09:20;3.05;;;0.85;;
52692;SDS011;68218;51.012;-1.648;2023-03-14T10:11:51;4.75;;;0.93;;
52692;SDS011;68218;51.012;-1.648;2023-03-14T10:14:32;3.90;;;1.15;;
52692;SDS011;68218;51.012;-1.648;2023-03-14T10:17:09;4.53;;;1.02;;
52692;SDS011;68218;51.012;-1.648;2023-03-14T10:19:37;2.63;;;1.10;;
52692;SDS011;68218;51.012;-1.648;2023-03-14T10:24:34;6.22;;;1.20;;
52692;SDS011;68218;51.012;-1.648;2023-03-14T10:27:05;7.75;;;1.08;;
52692;SDS011;68218;51.012;-1.648;2023-03-14T10:29:51;1.25;;;0.82;;
52692;SDS011;68218;51.012;-1.648;2023-03-14T10:32:22;4.03;;;1.15;;
52692;SDS011;68218;51.012;-1.648;2023-03-14T10:35:05;7.18;;;1.15;;
52692;SDS011;68218;51.012;-1.648;2023-03-14T10:37:36;3.00;;;0.93;;
52692;SDS011;68218;51.012;-1.648;2023-03-14T10:40:15;5.32;;;1.17;;
52692;SDS011;68218;51.012;-1.648;2023-03-14T10:42:43;4.07;;;1.00;;
52692;SDS011;68218;51.012;-1.648;2023-03-14T10:45:23;4.03;;;0.75;;
52692;SDS011;68218;51.012;-1.648;2023-03-14T10:47:56;2.58;;;0.70;;
52692;SDS011;68218;51.012;-1.648;2023-03-14T10:53:41;7.68;;;1.33;;
52692;SDS011;68218;51.012;-1.648;2023-03-14T10:56:22;3.80;;;1.00;;
52692;SDS011;68218;51.012;-1.648;2023-03-14T10:58:49;8.32;;;1.15;;
52692;SDS011;68218;51.012;-1.648;2023-03-14T11:04:16;5.43;;;1.20;;
52692;SDS011;68218;51.012;-1.648;2023-03-14T11:06:50;5.35;;;1.23;;
52692;SDS011;68218;51.012;-1.648;2023-03-14T11:11:55;7.13;;;1.27;;
52692;SDS011;68218;51.012;-1.648;2023-03-14T11:14:34;5.18;;;1.15;;
52692;SDS011;68218;51.012;-1.648;2023-03-14T11:22:46;5.38;;;1.50;;
52692;SDS011;68218;51.012;-1.648;2023-03-14T11:28:00;3.95;;;1.10;;
52692;SDS011;68218;51.012;-1.648;2023-03-14T11:30:51;6.70;;;1.15;;
52692;SDS011;68218;51.012;-1.648;2023-03-14T11:33:27;2.63;;;0.95;;
52692;SDS011;68218;51.012;-1.648;2023-03-14T11:36:09;7.78;;;1.45;;
52692;SDS011;68218;51.012;-1.648;2023-03-14T11:38:38;3.58;;;1.23;;
52692;SDS011;68218;51.012;-1.648;2023-03-14T11:41:15;4.07;;;1.05;;
52692;SDS011;68218;51.012;-1.648;2023-03-14T11:43:48;5.60;;;1.23;;
52692;SDS011;68218;51.012;-1.648;2023-03-14T11:51:34;2.10;;;0.82;;
52692;SDS011;68218;51.012;-1.648;2023-03-14T11:57:11;3.53;;;1.05;;
52692;SDS011;68218;51.012;-1.648;2023-03-14T12:02:45;2.65;;;0.98;;
52692;SDS011;68218;51.012;-1.648;2023-03-14T12:13:39;5.18;;;1.00;;
52692;SDS011;68218;51.012;-1.648;2023-03-14T12:16:19;3.30;;;0.95;;
52692;SDS011;68218;51.012;-1.648;2023-03-14T12:18:50;1.73;;;0.80;;
52692;SDS011;68218;51.012;-1.648;2023-03-14T12:21:16;3.50;;;0.95;;
52692;SDS011;68218;51.012;-1.648;2023-03-14T12:23:43;3.28;;;0.90;;
52692;SDS011;68218;51.012;-1.648;2023-03-14T12:26:21;3.53;;;1.13;;
52692;SDS011;68218;51.012;-1.648;2023-03-14T12:28:52;4.22;;;1.00;;
52692;SDS011;68218;51.012;-1.648;2023-03-14T12:34:41;5.68;;;1.33;;
52692;SDS011;68218;51.012;-1.648;2023-03-14T12:40:03;5.80;;;1.20;;
52692;SDS011;68218;51.012;-1.648;2023-03-14T12:45:27;1.65;;;0.85;;
52692;SDS011;68218;51.012;-1.648;2023-03-14T12:53:24;4.85;;;1.10;;
52692;SDS011;68218;51.012;-1.648;2023-03-14T13:01:19;3.75;;;0.98;;
52692;SDS011;68218;51.012;-1.648;2023-03-14T13:14:28;4.30;;;1.17;;
52692;SDS011;68218;51.012;-1.648;2023-03-14T13:16:55;5.65;;;1.30;;
52692;SDS011;68218;51.012;-1.648;2023-03-14T13:19:28;4.93;;;1.02;;
52692;SDS011;68218;51.012;-1.648;2023-03-14T13:21:56;5.22;;;1.08;;
52692;SDS011;68218;51.012;-1.648;2023-03-14T13:24:27;2.05;;;0.95;;
52692;SDS011;68218;51.012;-1.648;2023-03-14T13:26:55;6.25;;;1.40;;
52692;SDS011;68218;51.012;-1.648;2023-03-14T13:29:29;5.55;;;1.20;;
52692;SDS011;68218;51.012;-1.648;2023-03-14T13:31:58;3.45;;;1.08;;
52692;SDS011;68218;51.012;-1.648;2023-03-14T13:34:26;2.72;;;0.80;;
52692;SDS011;68218;51.012;-1.648;2023-03-14T13:36:54;1.75;;;1.13;;
52692;SDS011;68218;51.012;-1.648;2023-03-14T13:39:20;2.33;;;1.02;;
52692;SDS011;68218;51.012;-1.648;2023-03-14T13:41:50;6.82;;;1.40;;
52692;SDS011;68218;51.012;-1.648;2023-03-14T13:44:17;3.15;;;0.90;;
52692;SDS011;68218;51.012;-1.648;2023-03-14T13:46:49;2.83;;;1.00;;
52692;SDS011;68218;51.012;-1.648;2023-03-14T13:49:21;4.78;;;1.25;;
52692;SDS011;68218;51.012;-1.648;2023-03-14T13:51:49;6.55;;;1.17;;
52692;SDS011;68218;51.012;-1.648;2023-03-14T13:54:15;3.20;;;0.80;;
52692;SDS011;68218;51.012;-1.648;2023-03-14T13:56:42;3.05;;;0.93;;
52692;SDS011;68218;51.012;-1.648;2023-03-14T13:59:27;3.20;;;0.98;;
52692;SDS011;68218;51.012;-1.648;2023-03-14T14:01:54;3.78;;;0.93;;
52692;SDS011;68218;51.012;-1.648;2023-03-14T14:04:23;2.70;;;0.80;;
52692;SDS011;68218;51.012;-1.648;2023-03-14T14:07:01;4.47;;;0.85;;
52692;SDS011;68218;51.012;-1.648;2023-03-14T14:09:37;4.40;;;1.05;;
52692;SDS011;68218;51.012;-1.648;2023-03-14T14:12:05;5.95;;;1.40;;
52692;SDS011;68218;51.012;-1.648;2023-03-14T14:14:43;6.68;;;1.92;;
52692;SDS011;68218;51.012;-1.648;2023-03-14T14:17:21;2.78;;;0.80;;
52692;SDS011;68218;51.012;-1.648;2023-03-14T14:19:55;1.83;;;0.80;;
52692;SDS011;68218;51.012;-1.648;2023-03-14T14:22:21;9.60;;;2.38;;
52692;SDS011;68218;51.012;-1.648;2023-03-14T14:24:47;3.47;;;0.85;;
52692;SDS011;68218;51.012;-1.648;2023-03-14T14:30:06;2.78;;;0.70;;
52692;SDS011;68218;51.012;-1.648;2023-03-14T14:32:52;1.23;;;0.88;;
52692;SDS011;68218;51.012;-1.648;2023-03-14T14:35:36;3.80;;;0.90;;
52692;SDS011;68218;51.012;-1.648;2023-03-14T14:38:02;3.00;;;0.80;;
52692;SDS011;68218;51.012;-1.648;2023-03-14T14:40:42;4.72;;;0.95;;
52692;SDS011;68218;51.012;-1.648;2023-03-14T14:43:10;2.70;;;1.08;;
52692;SDS011;68218;51.012;-1.648;2023-03-14T14:45:39;5.88;;;1.33;;
52692;SDS011;68218;51.012;-1.648;2023-03-14T14:48:10;5.25;;;1.13;;
52692;SDS011;68218;51.012;-1.648;2023-03-14T14:50:39;4.57;;;1.50;;
52692;SDS011;68218;51.012;-1.648;2023-03-14T14:56:19;3.10;;;1.23;;
52692;SDS011;68218;51.012;-1.648;2023-03-14T14:58:51;5.18;;;1.48;;
52692;SDS011;68218;51.012;-1.648;2023-03-14T15:01:23;9.18;;;1.58;;
52692;SDS011;68218;51.012;-1.648;2023-03-14T15:03:51;5.20;;;1.20;;
52692;SDS011;68218;51.012;-1.648;2023-03-14T15:06:18;6.05;;;1.45;;
52692;SDS011;68218;51.012;-1.648;2023-03-14T15:08:45;3.65;;;1.02;;
52692;SDS011;68218;51.012;-1.648;2023-03-14T15:11:19;7.30;;;1.42;;
52692;SDS011;68218;51.012;-1.648;2023-03-14T15:13:49;5.43;;;1.35;;
52692;SDS011;68218;51.012;-1.648;2023-03-14T15:16:16;5.28;;;1.25;;
52692;SDS011;68218;51.012;-1.648;2023-03-14T15:18:44;5.82;;;1.45;;
52692;SDS011;68218;51.012;-1.648;2023-03-14T15:21:34;4.43;;;1.17;;
52692;SDS011;68218;51.012;-1.648;2023-03-14T15:23:59;6.15;;;1.33;;
52692;SDS011;68218;51.012;-1.648;2023-03-14T15:28:51;7.33;;;1.17;;
52692;SDS011;68218;51.012;-1.648;2023-03-14T15:31:17;6.40;;;1.50;;
52692;SDS011;68218;51.012;-1.648;2023-03-14T15:33:44;7.78;;;2.47;;
52692;SDS011;68218;51.012;-1.648;2023-03-14T15:36:27;10.88;;;2.00;;
52692;SDS011;68218;51.012;-1.648;2023-03-14T15:38:58;7.40;;;1.40;;
52692;SDS011;68218;51.012;-1.648;2023-03-14T15:41:24;12.02;;;2.33;;
52692;SDS011;68218;51.012;-1.648;2023-03-14T15:43:50;12.70;;;2.75;;
52692;SDS011;68218;51.012;-1.648;2023-03-14T15:46:16;8.10;;;1.70;;
52692;SDS011;68218;51.012;-1.648;2023-03-14T15:48:45;11.82;;;2.33;;
52692;SDS011;68218;51.012;-1.648;2023-03-14T15:51:11;12.32;;;2.08;;
52692;SDS011;68218;51.012;-1.648;2023-03-14T15:56:03;11.95;;;2.50;;
52692;SDS011;68218;51.012;-1.648;2023-03-14T15:58:33;18.20;;;3.00;;
52692;SDS011;68218;51.012;-1.648;2023-03-14T16:03:24;15.65;;;2.42;;
52692;SDS011;68218;51.012;-1.648;2023-03-14T16:08:15;22.27;;;5.28;;
52692;SDS011;68218;51.012;-1.648;2023-03-14T16:13:07;15.20;;;2.78;;
52692;SDS011;68218;51.012;-1.648;2023-03-14T16:17:57;16.23;;;2.88;;
52692;SDS011;68218;51.012;-1.648;2023-03-14T16:22:48;18.70;;;3.90;;
52692;SDS011;68218;51.012;-1.648;2023-03-14T16:27:40;16.98;;;3.08;;
52692;SDS011;68218;51.012;-1.648;2023-03-14T16:30:07;10.88;;;2.65;;
52692;SDS011;68218;51.012;-1.648;2023-03-14T16:32:33;17.70;;;3.72;;
52692;SDS011;68218;51.012;-1.648;2023-03-14T16:35:00;17.08;;;3.50;;
52692;SDS011;68218;51.012;-1.648;2023-03-14T16:39:51;15.90;;;2.88;;
52692;SDS011;68218;51.012;-1.648;2023-03-14T16:44:42;16.77;;;2.75;;
52692;SDS011;68218;51.012;-1.648;2023-03-14T16:49:33;15.27;;;2.78;;
52692;SDS011;68218;51.012;-1.648;2023-03-14T16:54:24;9.52;;;1.80;;
52692;SDS011;68218;51.012;-1.648;2023-03-14T16:59:17;9.68;;;1.77;;
52692;SDS011;68218;51.012;-1.648;2023-03-14T17:04:08;8.05;;;1.67;;
52692;SDS011;68218;51.012;-1.648;2023-03-14T17:06:35;8.02;;;1.50;;
52692;SDS011;68218;51.012;-1.648;2023-03-14T17:11:32;7.80;;;1.58;;
52692;SDS011;68218;51.012;-1.648;2023-03-14T17:13:59;5.47;;;1.38;;
52692;SDS011;68218;51.012;-1.648;2023-03-14T17:16:25;8.00;;;1.50;;
52692;SDS011;68218;51.012;-1.648;2023-03-14T17:21:16;9.52;;;1.73;;
52692;SDS011;68218;51.012;-1.648;2023-03-14T17:26:07;7.03;;;1.20;;
52692;SDS011;68218;51.012;-1.648;2023-03-14T17:31:05;8.90;;;1.60;;
52692;SDS011;68218;51.012;-1.648;2023-03-14T17:33:33;11.75;;;2.75;;
52692;SDS011;68218;51.012;-1.648;2023-03-14T17:38:24;9.63;;;1.80;;
52692;SDS011;68218;51.012;-1.648;2023-03-14T17:40:51;9.20;;;1.95;;
52692;SDS011;68218;51.012;-1.648;2023-03-14T17:45:43;12.55;;;2.20;;
52692;SDS011;68218;51.012;-1.648;2023-03-14T17:50:34;8.63;;;1.58;;
52692;SDS011;68218;51.012;-1.648;2023-03-14T17:53:00;7.85;;;1.50;;
52692;SDS011;68218;51.012;-1.648;2023-03-14T17:57:51;7.32;;;1.75;;
52692;SDS011;68218;51.012;-1.648;2023-03-14T18:00:17;7.13;;;1.40;;
52692;SDS011;68218;51.012;-1.648;2023-03-14T18:02:43;9.13;;;1.35;;
52692;SDS011;68218;51.012;-1.648;2023-03-14T18:07:35;7.68;;;1.27;;
52692;SDS011;68218;51.012;-1.648;2023-03-14T18:10:02;5.47;;;1.30;;
52692;SDS011;68218;51.012;-1.648;2023-03-14T18:12:29;10.25;;;1.70;;
52692;SDS011;68218;51.012;-1.648;2023-03-14T18:17:20;11.85;;;1.50;;
52692;SDS011;68218;51.012;-1.648;2023-03-14T18:22:11;7.97;;;1.50;;
52692;SDS011;68218;51.012;-1.648;2023-03-14T18:24:37;10.25;;;2.70;;
52692;SDS011;68218;51.012;-1.648;2023-03-14T18:29:28;14.95;;;2.00;;
52692;SDS011;68218;51.012;-1.648;2023-03-14T18:34:20;14.10;;;4.67;;
52692;SDS011;68218;51.012;-1.648;2023-03-14T18:36:46;8.85;;;2.40;;
52692;SDS011;68218;51.012;-1.648;2023-03-14T18:39:12;16.70;;;3.50;;
52692;SDS011;68218;51.012;-1.648;2023-03-14T18:41:37;11.07;;;3.25;;
52692;SDS011;68218;51.012;-1.648;2023-03-14T18:44:04;12.85;;;3.33;;
52692;SDS011;68218;51.012;-1.648;2023-03-14T18:48:55;15.65;;;3.17;;
52692;SDS011;68218;51.012;-1.648;2023-03-14T18:53:50;15.95;;;3.33;;
52692;SDS011;68218;51.012;-1.648;2023-03-14T18:56:17;10.20;;;2.30;;
52692;SDS011;68218;51.012;-1.648;2023-03-14T18:58:42;37.90;;;18.65;;
52692;SDS011;68218;51.012;-1.648;2023-03-14T19:03:36;25.52;;;11.38;;
52692;SDS011;68218;51.012;-1.648;2023-03-14T19:06:03;14.88;;;2.78;;
52692;SDS011;68218;51.012;-1.648;2023-03-14T19:08:30;9.82;;;2.70;;
52692;SDS011;68218;51.012;-1.648;2023-03-14T19:10:58;10.38;;;2.30;;
52692;SDS011;68218;51.012;-1.648;2023-03-14T19:13:28;20.05;;;3.83;;
52692;SDS011;68218;51.012;-1.648;2023-03-14T19:15:55;6.70;;;1.60;;
52692;SDS011;68218;51.012;-1.648;2023-03-14T19:18:22;16.55;;;5.75;;